Startpagina
METAR-TAF:

METAR-TAF

Vliegvelden :

Luchthaven Poelkovo

Sint-Petersburg, Rusland

breedte: 59-58N, lengte: 030-18E, hoogte: 4 m

Actueel weer

Dit bericht is 35 minuten geleden gemaakt, om 12:30 UTC
Wind 10 kt uit het zuidoosten
Temperatuur -3°C
Vochtigheid 63%
Druk 1035 hPa
Zicht 10 km of meer
geen wolken onder 1500 m en geen cumulonimbus

METAR: ULLI 221230Z 14005MPS CAVOK M03/M09 Q1035 R88/090060 NOSIG

Tijdstip: 16:05 (13:05 UTC)

Verwachting

Dit bericht is 2 uur en het 9 minuten geleden gemaakt, om 10:56 UTC
Verwachting geldig van 22 om 12 UTC tot 23 om 12 UTC
Wind 6 kt uit het zuidzuidoosten met uitschieters tot 16 kt
Zicht 10 km of meer
Tijdelijke
van 22 om 12 UTC tot 22 om 15 UTC
Wind 12 kt uit het zuiden met uitschieters tot 23 kt
Wijzigt naar
van 22 om 15 UTC tot 22 om 17 UTC
Zicht 10 km of meer
geen wolken onder 1500 m en geen cumulonimbus

TAF: ULLI 221056Z 2212/2312 15003G08MPS 9999 NSC TEMPO 2212/2215 17006G12MPS BECMG 2215/2217 CAVOK

Waarnemingen en weersverwachtingen van meer dan 4000 vliegvelden (METAR en TAF).

De beschikbare stations zijn de gele en rode punten op de kaart.

Ga met uw muis naar het station om de naam te zien.

Klik dan om waarnemingen en weersverwachtingen te zien.

kaart wijzigen: klik op de groene knoppen met een zwart kruis om in te zoomen, op de groene knop met een streepje om uit te zoomen of op de groene pijlen voor aangrenzende kaarten.


METAR-TAF: